Overview Statistics Trail Chart Weather Telemetry Raw packets
 

This is the latest recevied weather packets stored in our database for station/object K6CED. If no packets are shown the sender has not sent any weather packets the latest 10 day(s).

<< 79 80 81 82 83 84 85 >>
Time Temp. Humidity Pressure Rain* Wind** Luminosity Snow
1788092681 18.89° C 85% 1015 hPa 0 mm - 0 W/m² -
1788092376 18.89° C 85% 1014.7 hPa 0 mm - 0 W/m² -
1788092071 18.89° C 85% 1014.9 hPa 0 mm - 0 W/m² -
1788091766 18.89° C 84% 1014.9 hPa 0 mm - 0 W/m² -
1788091462 18.89° C 83% 1014.9 hPa 0 mm - 0 W/m² -
1788091158 18.89° C 82% 1014.9 hPa 0 mm - 0 W/m² -
1788090854 18.89° C 81% 1014.7 hPa 0 mm - 0 W/m² -
1788090549 18.89° C 82% 1014.8 hPa 0 mm - 0 W/m² -
1788090246 18.89° C 81% 1014.8 hPa 0 mm - 0 W/m² -
1788089939 18.89° C 81% 1014.7 hPa 0 mm - 0 W/m² -
1788089634 18.89° C 82% 1014.9 hPa 0 mm - 0 W/m² -
1788089330 19.44° C 82% 1014.8 hPa 0 mm - 0 W/m² -
1788089026 19.44° C 83% 1014.9 hPa 0 mm - 0 W/m² -
1788088722 20° C 85% 1014.8 hPa 0 mm - 0 W/m² -
1788088417 20° C 84% 1014.8 hPa 0 mm - 0 W/m² -
1788088112 19.44° C 82% 1014.8 hPa 0 mm - 0 W/m² -
1788087808 19.44° C 82% 1014.8 hPa 0 mm - 0 W/m² -
1788087507 19.44° C 82% 1014.9 hPa 0 mm - 0 W/m² -
1788087215 20° C 82% 1014.7 hPa 0 mm - 0 W/m² -
1788086900 20° C 83% 1014.8 hPa 0 mm - 0 W/m² -
1788086597 20° C 84% 1014.7 hPa 0 mm - 0 W/m² -
1788086295 21.11° C 87% 1014.5 hPa 0 mm - 0 W/m² -
1788085992 20.56° C 85% 1014.7 hPa 0 mm - 0 W/m² -
1788085689 20° C 82% 1014.5 hPa 0 mm - 0 W/m² -
1788085385 20° C 82% 1014.5 hPa 0 mm - 0 W/m² -

* Rain latest hour (hover to see other rain measurements)
** Current wind speed in m/s (hover to see current wind gust speed)